createdAt,value
2019-05-21T00:00:25.090Z,17.62
2019-05-21T00:01:29.946Z,17.44
2019-05-21T00:02:36.359Z,17.51
2019-05-21T00:03:38.377Z,17.57
2019-05-21T00:04:42.908Z,17.72
2019-05-21T00:05:47.225Z,17.78
2019-05-21T00:06:49.616Z,17.84
2019-05-21T00:07:52.753Z,17.95
2019-05-21T00:08:55.363Z,17.91
2019-05-21T00:09:57.171Z,17.85
2019-05-21T00:11:01.192Z,17.81
2019-05-21T00:12:04.262Z,17.78
2019-05-21T00:13:07.313Z,17.56
2019-05-21T00:14:10.911Z,17.62
2019-05-21T00:15:14.802Z,17.13
2019-05-21T00:16:17.370Z,17.25
2019-05-21T00:17:20.547Z,17.24
2019-05-21T00:18:23.450Z,17.04
2019-05-21T00:19:27.007Z,17.14
2019-05-21T00:20:29.677Z,17.10
2019-05-21T00:21:32.153Z,17.13
2019-05-21T00:22:34.514Z,17.34
2019-05-21T00:23:37.588Z,17.22
2019-05-21T00:24:39.600Z,17.37
2019-05-21T00:25:44.666Z,17.12
2019-05-21T00:26:48.108Z,17.20
2019-05-21T00:27:50.111Z,17.33
2019-05-21T00:29:52.653Z,17.27
2019-05-21T00:31:51.281Z,17.10
2019-05-21T00:33:50.056Z,17.07
2019-05-21T00:35:51.493Z,17.10
2019-05-21T00:37:33.836Z,17.30
2019-05-21T00:39:35.016Z,17.22
2019-05-21T00:41:35.833Z,17.33
2019-05-21T00:42:42.986Z,17.27
2019-05-21T00:43:49.394Z,17.39
2019-05-21T00:44:52.552Z,17.19
2019-05-21T00:45:55.552Z,17.06
2019-05-21T00:46:58.724Z,17.04
2019-05-21T00:48:01.433Z,16.93
2019-05-21T00:49:04.762Z,16.91
2019-05-21T00:50:08.246Z,16.93
2019-05-21T00:51:10.462Z,16.92
2019-05-21T00:52:12.663Z,16.92
2019-05-21T00:53:15.322Z,17.06
2019-05-21T00:54:17.326Z,16.95
2019-05-21T00:55:19.814Z,16.94
2019-05-21T00:56:22.756Z,16.77
2019-05-21T00:57:27.033Z,16.97
2019-05-21T00:58:29.060Z,16.91
2019-05-21T00:59:31.701Z,16.97
2019-05-21T01:00:34.522Z,16.87
2019-05-21T01:01:38.966Z,16.89
2019-05-21T01:02:41.973Z,16.93
2019-05-21T01:03:45.378Z,16.95
2019-05-21T01:05:00.428Z,16.90
2019-05-21T01:05:52.649Z,17.07
2019-05-21T01:06:54.765Z,17.14
2019-05-21T01:07:59.600Z,17.26
2019-05-21T01:09:04.200Z,17.18
2019-05-21T01:10:08.161Z,17.20
2019-05-21T01:11:10.740Z,17.22
2019-05-21T01:12:13.983Z,17.16
2019-05-21T01:13:17.098Z,17.20
2019-05-21T01:14:19.444Z,17.26
2019-05-21T01:15:24.007Z,17.21
2019-05-21T01:16:26.823Z,17.23
2019-05-21T01:17:29.240Z,17.28
2019-05-21T01:18:32.144Z,17.27
2019-05-21T01:19:34.923Z,17.36
2019-05-21T01:20:37.218Z,17.30
2019-05-21T01:21:39.105Z,17.49
2019-05-21T01:22:43.783Z,17.47
2019-05-21T01:23:45.980Z,17.59
2019-05-21T01:24:47.688Z,17.61
2019-05-21T01:25:49.947Z,17.52
2019-05-21T01:26:52.339Z,17.53
2019-05-21T01:27:54.835Z,17.55
2019-05-21T01:28:58.391Z,17.54
2019-05-21T01:30:00.541Z,17.47
2019-05-21T01:31:02.540Z,17.32
2019-05-21T01:32:05.014Z,17.43
2019-05-21T01:33:06.937Z,17.22
2019-05-21T01:34:11.520Z,17.24
2019-05-21T01:35:17.079Z,17.39
2019-05-21T01:36:18.885Z,17.31
2019-05-21T01:37:20.611Z,17.39
2019-05-21T01:38:23.065Z,17.41
2019-05-21T01:39:27.755Z,17.33
2019-05-21T01:40:29.502Z,17.39
2019-05-21T01:41:32.081Z,17.30
2019-05-21T01:42:34.661Z,17.36
2019-05-21T01:43:36.814Z,17.32
2019-05-21T01:44:39.389Z,17.46
2019-05-21T01:45:41.802Z,17.56
2019-05-21T01:46:44.277Z,17.59
2019-05-21T01:47:46.580Z,17.67
2019-05-21T01:48:50.031Z,17.66
2019-05-21T01:49:52.432Z,17.78
2019-05-21T01:50:55.022Z,17.62
2019-05-21T01:51:57.580Z,17.70
2019-05-21T01:53:00.025Z,17.74
2019-05-21T01:54:02.965Z,17.74
2019-05-21T01:55:06.804Z,17.71
2019-05-21T01:56:10.222Z,17.79
2019-05-21T01:57:13.155Z,17.79
2019-05-21T01:58:16.590Z,17.77
2019-05-21T01:59:19.176Z,17.76
2019-05-21T02:00:22.149Z,17.81
2019-05-21T02:01:24.448Z,17.84
2019-05-21T02:02:29.541Z,17.70
2019-05-21T02:03:33.403Z,17.71
2019-05-21T02:04:37.956Z,17.80
2019-05-21T02:05:40.478Z,17.83
2019-05-21T02:06:42.238Z,17.77
2019-05-21T02:07:44.866Z,17.80
2019-05-21T02:08:47.328Z,17.74
2019-05-21T02:09:59.906Z,17.83
2019-05-21T02:11:02.763Z,17.95
2019-05-21T02:12:05.696Z,18.07
2019-05-21T02:13:08.468Z,18.02
2019-05-21T02:14:11.035Z,18.07
2019-05-21T02:15:14.344Z,18.05
2019-05-21T02:16:16.746Z,18.12
2019-05-21T02:17:19.084Z,18.22
2019-05-21T02:18:21.899Z,18.28
2019-05-21T02:19:23.586Z,18.30
2019-05-21T02:20:26.155Z,18.26
2019-05-21T02:21:31.104Z,18.31
2019-05-21T02:22:33.980Z,18.54
2019-05-21T02:23:36.442Z,18.50
2019-05-21T02:24:38.487Z,18.65
2019-05-21T02:25:41.783Z,18.62
2019-05-21T02:26:44.525Z,18.76
2019-05-21T02:27:48.835Z,18.66
2019-05-21T02:28:52.093Z,18.73
2019-05-21T02:29:54.712Z,18.71
2019-05-21T02:30:58.476Z,18.89
2019-05-21T02:32:00.763Z,18.87
2019-05-21T02:33:03.854Z,18.95
2019-05-21T02:34:06.510Z,18.83
2019-05-21T02:35:11.845Z,18.97
2019-05-21T02:36:14.025Z,18.92
2019-05-21T02:37:17.714Z,18.73
2019-05-21T02:38:20.553Z,18.71
2019-05-21T02:39:22.731Z,18.69
2019-05-21T02:40:26.074Z,18.50
2019-05-21T02:41:28.789Z,18.71
2019-05-21T02:42:31.154Z,18.41
2019-05-21T02:43:33.740Z,18.55
2019-05-21T02:44:36.326Z,18.27
2019-05-21T02:45:39.179Z,18.14
2019-05-21T02:46:42.199Z,18.24
2019-05-21T02:47:46.257Z,18.17
2019-05-21T02:48:50.371Z,18.02
2019-05-21T02:49:54.851Z,18.09
2019-05-21T02:50:57.131Z,18.14
2019-05-21T02:52:01.848Z,18.04
2019-05-21T02:53:04.777Z,18.09
2019-05-21T02:54:07.387Z,18.07
2019-05-21T02:55:12.288Z,18.07
2019-05-21T02:56:19.909Z,17.99
2019-05-21T02:57:27.942Z,17.97
2019-05-21T02:58:30.213Z,18.00
2019-05-21T02:59:34.711Z,17.95
2019-05-21T03:00:51.629Z,18.00
2019-05-21T03:01:58.997Z,17.97
2019-05-21T03:03:09.931Z,17.99
2019-05-21T03:04:12.824Z,18.00
2019-05-21T03:05:16.815Z,18.05
2019-05-21T03:06:19.058Z,18.14
2019-05-21T03:07:25.628Z,18.32
2019-05-21T03:08:30.850Z,18.36
2019-05-21T03:09:35.554Z,18.41
2019-05-21T03:10:38.716Z,18.40
2019-05-21T03:11:41.559Z,18.35
2019-05-21T03:12:44.381Z,18.26
2019-05-21T03:13:46.849Z,18.30
2019-05-21T03:14:51.768Z,18.24
2019-05-21T03:15:53.616Z,18.34
2019-05-21T03:16:57.410Z,18.49
2019-05-21T03:18:00.034Z,18.49
2019-05-21T03:19:02.845Z,18.58
2019-05-21T03:20:07.451Z,18.50
2019-05-21T03:21:10.311Z,18.51
2019-05-21T03:22:12.051Z,18.50
2019-05-21T03:23:14.727Z,18.43
2019-05-21T03:24:16.954Z,18.36
2019-05-21T03:25:19.487Z,18.44
2019-05-21T03:26:23.229Z,18.43
2019-05-21T03:27:25.564Z,18.35
2019-05-21T03:28:27.863Z,18.42
2019-05-21T03:29:32.373Z,18.32
2019-05-21T03:30:35.233Z,18.31
2019-05-21T03:31:38.034Z,18.29
2019-05-21T03:32:40.521Z,18.23
2019-05-21T03:33:43.091Z,18.31
2019-05-21T03:34:45.958Z,18.40
2019-05-21T03:35:49.166Z,18.40
2019-05-21T03:36:52.376Z,18.23
2019-05-21T03:37:56.478Z,18.28
2019-05-21T03:38:59.215Z,18.21
2019-05-21T03:40:01.294Z,18.03
2019-05-21T03:41:03.741Z,18.09
2019-05-21T03:42:13.358Z,17.96
2019-05-21T03:43:17.140Z,18.02
2019-05-21T03:44:23.613Z,17.95
2019-05-21T03:45:26.397Z,18.10
2019-05-21T03:46:29.866Z,18.07
2019-05-21T03:47:33.661Z,18.17
2019-05-21T03:48:36.455Z,17.95
2019-05-21T03:49:39.926Z,18.10
2019-05-21T03:50:42.997Z,18.13
2019-05-21T03:51:44.950Z,18.14
2019-05-21T03:52:47.491Z,18.19
2019-05-21T03:53:49.806Z,18.16
2019-05-21T03:54:52.625Z,18.19
2019-05-21T03:55:55.304Z,18.14
2019-05-21T03:56:57.823Z,18.11
2019-05-21T03:58:00.385Z,18.25
2019-05-21T03:59:03.391Z,18.23
2019-05-21T04:00:08.134Z,18.18
2019-05-21T04:01:09.929Z,18.25
2019-05-21T04:02:12.694Z,18.21
2019-05-21T04:03:15.072Z,18.22
2019-05-21T04:04:20.970Z,18.11
2019-05-21T04:05:24.682Z,18.22
2019-05-21T04:06:28.970Z,18.29
2019-05-21T04:07:30.903Z,18.33
2019-05-21T04:08:33.507Z,18.31
2019-05-21T04:09:36.679Z,18.31
2019-05-21T04:10:39.871Z,18.39
2019-05-21T04:11:43.957Z,18.36
2019-05-21T04:12:47.857Z,18.45
2019-05-21T04:13:51.917Z,18.43
2019-05-21T04:14:56.779Z,18.47
2019-05-21T04:16:13.955Z,18.54
2019-05-21T04:17:34.565Z,18.50
2019-05-21T04:18:42.968Z,18.48
2019-05-21T04:19:46.482Z,18.47
2019-05-21T04:20:49.603Z,18.45
2019-05-21T04:21:54.543Z,18.41
2019-05-21T04:22:57.452Z,18.25
2019-05-21T04:24:01.519Z,18.25
2019-05-21T04:25:05.023Z,18.30
2019-05-21T04:26:07.727Z,18.19
2019-05-21T04:27:10.880Z,18.30
2019-05-21T04:28:14.183Z,18.22
2019-05-21T04:29:17.710Z,18.23
2019-05-21T04:30:20.997Z,18.31
2019-05-21T04:31:23.824Z,18.22
2019-05-21T04:32:26.464Z,18.21
2019-05-21T04:33:28.110Z,18.21
2019-05-21T04:34:30.660Z,18.22
2019-05-21T04:35:33.552Z,18.25
2019-05-21T04:36:36.065Z,18.19
2019-05-21T04:37:39.143Z,18.23
2019-05-21T04:38:41.769Z,18.18
2019-05-21T04:39:44.453Z,18.24
2019-05-21T04:40:48.839Z,18.23
2019-05-21T04:41:51.366Z,18.22
2019-05-21T04:42:54.149Z,18.28
2019-05-21T04:43:57.237Z,18.23
2019-05-21T04:45:00.089Z,18.41
2019-05-21T04:46:02.373Z,18.31
2019-05-21T04:47:05.060Z,18.37
2019-05-21T04:48:09.034Z,18.44
2019-05-21T04:49:11.695Z,18.47
2019-05-21T04:50:14.709Z,18.32
2019-05-21T04:51:17.658Z,18.36
2019-05-21T04:52:19.811Z,18.39
2019-05-21T04:53:22.815Z,18.25
2019-05-21T04:54:24.859Z,18.21
2019-05-21T04:55:27.493Z,18.44
2019-05-21T04:56:29.882Z,18.45
2019-05-21T04:57:32.536Z,18.51
2019-05-21T04:58:35.524Z,18.45
2019-05-21T04:59:38.084Z,18.51
2019-05-21T05:00:40.080Z,18.43
2019-05-21T05:01:42.999Z,18.50
2019-05-21T05:02:45.621Z,18.38
2019-05-21T05:03:49.209Z,18.47
2019-05-21T05:04:52.152Z,18.38
2019-05-21T05:05:54.850Z,18.44
2019-05-21T05:06:57.782Z,18.41
2019-05-21T05:08:00.142Z,18.42
2019-05-21T05:09:04.981Z,18.43
2019-05-21T05:10:08.757Z,18.49
2019-05-21T05:11:11.690Z,18.57
2019-05-21T05:14:21.107Z,18.43
2019-05-21T05:15:25.107Z,18.45
2019-05-21T05:16:27.800Z,18.48
2019-05-21T05:17:30.629Z,18.49
2019-05-21T05:18:33.376Z,18.49
2019-05-21T05:19:35.750Z,18.43
2019-05-21T05:20:39.127Z,18.45
2019-05-21T05:21:43.685Z,18.40
2019-05-21T05:22:48.456Z,18.57
2019-05-21T05:23:50.856Z,18.73
2019-05-21T05:24:53.174Z,18.90
2019-05-21T05:25:57.793Z,18.87
2019-05-21T05:27:00.318Z,19.03
2019-05-21T05:28:05.224Z,19.13
2019-05-21T05:29:07.852Z,19.16
2019-05-21T05:30:11.561Z,19.12
2019-05-21T05:31:15.382Z,19.15
2019-05-21T05:32:18.258Z,19.14
2019-05-21T05:33:21.238Z,19.08
2019-05-21T05:34:23.353Z,19.24
2019-05-21T05:35:27.826Z,19.28
2019-05-21T05:36:30.503Z,19.26
2019-05-21T05:37:43.243Z,19.28
2019-05-21T05:41:02.720Z,19.22
2019-05-21T05:42:04.572Z,19.29
2019-05-21T05:43:09.108Z,19.44
2019-05-21T05:44:12.061Z,19.43
2019-05-21T05:45:16.729Z,19.37
2019-05-21T05:46:18.584Z,19.46
2019-05-21T05:47:21.356Z,19.49
2019-05-21T05:48:25.215Z,19.49
2019-05-21T05:49:29.709Z,19.44
2019-05-21T05:50:34.646Z,19.36
2019-05-21T05:51:37.358Z,19.40
2019-05-21T05:52:40.557Z,19.42
2019-05-21T05:53:56.251Z,19.29
2019-05-21T05:54:58.837Z,19.16
2019-05-21T05:56:02.570Z,19.10
2019-05-21T05:57:05.335Z,19.20
2019-05-21T05:58:07.584Z,19.29
2019-05-21T05:59:13.742Z,19.34
2019-05-21T06:00:16.079Z,19.42
2019-05-21T06:01:18.000Z,19.40
2019-05-21T06:02:20.412Z,19.51
2019-05-21T06:03:22.155Z,19.44
2019-05-21T06:04:25.230Z,19.41
2019-05-21T06:05:27.979Z,19.46
2019-05-21T06:06:32.411Z,19.38
2019-05-21T06:07:34.897Z,19.42
2019-05-21T06:08:37.506Z,19.45
2019-05-21T06:09:39.312Z,19.52
2019-05-21T06:10:42.840Z,19.59
2019-05-21T06:11:45.176Z,19.58
2019-05-21T06:12:47.602Z,19.60
2019-05-21T06:13:50.321Z,19.54
2019-05-21T06:14:53.433Z,19.57
2019-05-21T06:15:56.208Z,19.43
2019-05-21T06:16:59.014Z,19.37
2019-05-21T06:18:01.337Z,19.33
2019-05-21T06:19:03.815Z,19.37
2019-05-21T06:20:07.443Z,19.47
2019-05-21T06:21:10.032Z,19.48
2019-05-21T06:22:12.225Z,19.51
2019-05-21T06:23:14.550Z,19.55
2019-05-21T06:24:16.467Z,19.60
2019-05-21T06:25:19.311Z,19.66
2019-05-21T06:26:22.199Z,19.74
2019-05-21T06:27:24.383Z,19.85
2019-05-21T06:28:26.994Z,19.90
2019-05-21T06:29:29.342Z,19.94
2019-05-21T06:30:32.189Z,20.04
2019-05-21T06:31:34.517Z,19.96
2019-05-21T06:32:38.548Z,20.12
2019-05-21T06:33:42.726Z,20.07
2019-05-21T06:34:44.601Z,19.57
2019-05-21T06:35:47.587Z,19.40
2019-05-21T06:36:50.955Z,19.67
2019-05-21T06:37:53.319Z,19.74
2019-05-21T06:38:55.780Z,19.84
2019-05-21T06:39:58.547Z,20.04
2019-05-21T06:41:01.690Z,19.83
2019-05-21T06:42:06.544Z,19.95
2019-05-21T06:43:09.511Z,20.03
2019-05-21T06:44:12.496Z,20.12
2019-05-21T06:45:15.492Z,20.04
2019-05-21T06:46:17.368Z,20.05
2019-05-21T06:47:19.850Z,20.13
2019-05-21T06:48:22.308Z,20.21
2019-05-21T06:49:24.981Z,19.86
2019-05-21T06:50:27.484Z,19.79
2019-05-21T06:51:30.266Z,19.59
2019-05-21T06:52:35.041Z,19.68
2019-05-21T06:53:37.840Z,19.40
2019-05-21T06:54:40.438Z,19.55
2019-05-21T06:55:42.954Z,19.38
2019-05-21T06:56:45.284Z,19.41
2019-05-21T06:57:48.824Z,19.62
2019-05-21T06:58:51.851Z,19.63
2019-05-21T06:59:55.097Z,19.58
2019-05-21T07:00:58.153Z,19.43
2019-05-21T07:02:01.776Z,19.10
2019-05-21T07:03:06.720Z,19.10
2019-05-21T07:04:10.436Z,18.55
2019-05-21T07:05:13.035Z,18.73
2019-05-21T07:06:15.482Z,18.53
2019-05-21T07:07:17.438Z,18.39
2019-05-21T07:08:33.489Z,18.52
2019-05-21T07:09:25.245Z,18.48
2019-05-21T07:10:28.976Z,18.46
2019-05-21T07:11:31.803Z,18.66
2019-05-21T07:12:33.829Z,18.36
2019-05-21T07:13:35.659Z,17.98
2019-05-21T07:14:38.199Z,18.02
2019-05-21T07:15:40.029Z,18.27
2019-05-21T07:16:43.012Z,18.13
2019-05-21T07:17:47.998Z,18.05
2019-05-21T07:18:50.116Z,18.21
2019-05-21T07:19:53.027Z,17.97
2019-05-21T07:20:55.513Z,18.03
2019-05-21T07:22:11.464Z,18.02
2019-05-21T07:23:03.978Z,17.89
2019-05-21T07:24:06.487Z,17.88
2019-05-21T07:25:10.101Z,17.77
2019-05-21T07:26:12.974Z,17.62
2019-05-21T07:27:15.569Z,17.79
2019-05-21T07:28:17.922Z,17.58
2019-05-21T07:29:22.172Z,17.82
2019-05-21T07:30:24.512Z,17.85
2019-05-21T07:31:31.129Z,17.76
2019-05-21T07:32:34.934Z,17.85
2019-05-21T07:33:37.195Z,17.74
2019-05-21T07:34:39.529Z,17.83
2019-05-21T07:35:42.763Z,17.84
2019-05-21T07:36:45.510Z,17.80
2019-05-21T07:37:48.310Z,17.79
2019-05-21T07:38:54.030Z,18.17
2019-05-21T07:39:55.745Z,18.15
2019-05-21T07:40:59.647Z,17.97
2019-05-21T07:42:02.530Z,17.77
2019-05-21T07:43:05.330Z,17.83
2019-05-21T07:44:07.737Z,17.95
2019-05-21T07:45:10.877Z,17.95
2019-05-21T07:46:13.772Z,17.79
2019-05-21T07:47:16.671Z,17.94
2019-05-21T07:48:19.274Z,17.72
2019-05-21T07:49:21.027Z,17.64
2019-05-21T07:50:23.889Z,17.52
2019-05-21T07:51:26.253Z,17.48
2019-05-21T07:52:28.729Z,17.43
2019-05-21T07:53:31.025Z,17.58
2019-05-21T07:54:32.801Z,17.71
2019-05-21T07:55:35.649Z,17.65
2019-05-21T07:56:38.331Z,17.58
2019-05-21T07:57:42.575Z,17.69
2019-05-21T07:58:44.925Z,17.72
2019-05-21T07:59:47.722Z,17.71
2019-05-21T08:00:52.758Z,17.55
2019-05-21T08:01:56.452Z,17.53
2019-05-21T08:02:58.825Z,17.35
2019-05-21T08:04:01.151Z,17.70
2019-05-21T08:05:06.323Z,17.53
2019-05-21T08:06:09.149Z,17.51
2019-05-21T08:07:11.775Z,17.43
2019-05-21T08:08:14.654Z,17.49
2019-05-21T08:09:17.016Z,17.41
2019-05-21T08:10:19.286Z,17.71
2019-05-21T08:11:23.171Z,17.79
2019-05-21T08:12:38.089Z,17.78
2019-05-21T08:13:30.515Z,17.94
2019-05-21T08:14:33.486Z,18.27
2019-05-21T08:15:35.298Z,18.17
2019-05-21T08:16:39.631Z,17.83
2019-05-21T08:17:42.092Z,17.80
2019-05-21T08:18:45.970Z,17.81
2019-05-21T08:19:48.395Z,17.73
2019-05-21T08:20:51.019Z,17.83
2019-05-21T08:21:56.597Z,17.77
2019-05-21T08:22:59.196Z,17.79
2019-05-21T08:24:01.610Z,17.86
2019-05-21T08:25:05.476Z,17.94
2019-05-21T08:26:09.785Z,17.86
2019-05-21T08:27:13.198Z,17.96
2019-05-21T08:28:15.168Z,18.10
2019-05-21T08:29:18.003Z,18.12
2019-05-21T08:30:21.465Z,18.08
2019-05-21T08:31:23.387Z,18.08
2019-05-21T08:32:25.695Z,18.21
2019-05-21T08:33:29.570Z,18.43
2019-05-21T08:34:32.117Z,18.44
2019-05-21T08:35:34.677Z,18.53
2019-05-21T08:36:36.987Z,18.81
2019-05-21T08:37:40.286Z,18.42
2019-05-21T08:38:42.464Z,18.20
2019-05-21T08:39:44.280Z,18.15
2019-05-21T08:40:47.024Z,18.16
2019-05-21T08:41:50.029Z,18.13
2019-05-21T08:42:52.498Z,18.11
2019-05-21T08:43:55.005Z,17.97
2019-05-21T08:44:57.552Z,18.03
2019-05-21T08:46:00.096Z,17.94
2019-05-21T08:47:02.752Z,18.01
2019-05-21T08:48:05.613Z,17.88
2019-05-21T08:49:07.691Z,17.95
2019-05-21T08:50:11.422Z,17.80
2019-05-21T08:51:14.071Z,17.80
2019-05-21T08:52:18.215Z,18.17
2019-05-21T08:53:22.974Z,18.32
2019-05-21T08:54:44.653Z,18.18
2019-05-21T08:55:47.051Z,18.17
2019-05-21T08:56:49.363Z,18.54
2019-05-21T08:58:06.489Z,18.58
2019-05-21T08:58:56.126Z,18.37
2019-05-21T08:59:58.749Z,18.38
2019-05-21T09:01:00.994Z,18.52
2019-05-21T09:02:04.124Z,18.54
2019-05-21T09:03:06.851Z,18.55
2019-05-21T09:04:08.998Z,18.43
2019-05-21T09:05:11.833Z,18.38
2019-05-21T09:06:14.796Z,18.21
2019-05-21T09:07:17.258Z,18.10
2019-05-21T09:08:20.202Z,18.18
2019-05-21T09:09:22.992Z,18.20
2019-05-21T09:10:25.662Z,18.29
2019-05-21T09:11:28.120Z,18.56
2019-05-21T09:12:32.072Z,18.72
2019-05-21T09:13:34.450Z,18.53
2019-05-21T09:14:36.824Z,18.56
2019-05-21T09:15:39.400Z,18.63
2019-05-21T09:16:42.440Z,18.60
2019-05-21T09:17:45.214Z,18.74
2019-05-21T09:18:47.262Z,18.80
2019-05-21T09:19:50.004Z,18.97
2019-05-21T09:20:52.921Z,18.85
2019-05-21T09:21:55.245Z,18.88
2019-05-21T09:22:57.679Z,18.90
2019-05-21T09:24:00.404Z,19.00
2019-05-21T09:25:05.123Z,19.13
2019-05-21T09:26:08.047Z,19.21
2019-05-21T09:27:09.947Z,19.39
2019-05-21T09:28:12.487Z,19.30
2019-05-21T09:29:15.416Z,19.41
2019-05-21T09:30:18.957Z,19.42
2019-05-21T09:31:22.197Z,19.25
2019-05-21T09:32:26.428Z,19.10
2019-05-21T09:33:29.197Z,19.23
2019-05-21T09:34:47.492Z,19.08
2019-05-21T09:35:36.199Z,19.18
2019-05-21T09:36:38.947Z,19.50
2019-05-21T09:37:41.696Z,19.58
2019-05-21T09:38:44.424Z,19.66
2019-05-21T09:39:46.621Z,19.55
2019-05-21T09:40:51.641Z,19.47
2019-05-21T09:41:53.947Z,19.41
2019-05-21T09:42:56.893Z,19.55
2019-05-21T09:43:59.467Z,19.36
2019-05-21T09:45:03.352Z,19.38
2019-05-21T09:46:07.763Z,19.30
2019-05-21T09:47:10.356Z,19.10
2019-05-21T09:48:13.946Z,19.06
2019-05-21T09:49:16.613Z,19.08
2019-05-21T09:50:20.444Z,19.08
2019-05-21T09:51:22.838Z,19.27
2019-05-21T09:52:25.127Z,19.32
2019-05-21T09:53:27.444Z,19.31
2019-05-21T09:54:29.941Z,19.29
2019-05-21T09:55:33.684Z,19.06
2019-05-21T09:56:37.204Z,19.26
2019-05-21T09:57:41.794Z,19.38
2019-05-21T09:58:45.471Z,19.46
2019-05-21T09:59:50.220Z,19.54
2019-05-21T10:01:10.693Z,19.51
2019-05-21T10:02:21.052Z,19.70
2019-05-21T10:03:31.709Z,19.82
2019-05-21T10:04:34.368Z,19.75
2019-05-21T10:05:37.112Z,19.83
2019-05-21T10:06:39.768Z,20.05
2019-05-21T10:07:41.856Z,20.22
2019-05-21T10:08:44.602Z,20.22
2019-05-21T10:09:47.992Z,20.16
2019-05-21T10:10:50.485Z,20.26
2019-05-21T10:11:53.156Z,19.99
2019-05-21T10:12:55.858Z,19.75
2019-05-21T10:13:58.582Z,19.50
2019-05-21T10:15:01.354Z,19.31
2019-05-21T10:16:03.587Z,19.30
2019-05-21T10:17:06.200Z,19.32
2019-05-21T10:18:08.537Z,19.17
2019-05-21T10:19:11.715Z,19.14
2019-05-21T10:20:14.552Z,19.29
2019-05-21T10:21:16.976Z,19.17
2019-05-21T10:22:19.248Z,19.15
2019-05-21T10:23:21.716Z,19.39
2019-05-21T10:24:26.467Z,19.10
2019-05-21T10:25:28.989Z,19.01
2019-05-21T10:26:32.299Z,19.42
2019-05-21T10:27:35.115Z,19.48
2019-05-21T10:28:37.400Z,19.40
2019-05-21T10:29:40.752Z,19.51
2019-05-21T10:30:43.608Z,19.20
2019-05-21T10:31:46.123Z,19.24
2019-05-21T10:32:48.795Z,19.47
2019-05-21T10:33:50.502Z,19.41
2019-05-21T10:34:53.305Z,19.23
2019-05-21T10:35:55.982Z,19.30
2019-05-21T10:36:58.403Z,19.27
2019-05-21T10:38:00.945Z,19.38
2019-05-21T10:39:06.031Z,19.43
2019-05-21T10:40:09.799Z,19.42
2019-05-21T10:41:12.811Z,19.41
2019-05-21T10:42:15.781Z,18.99
2019-05-21T10:43:20.873Z,18.91
2019-05-21T10:44:23.803Z,18.85
2019-05-21T10:45:26.214Z,18.93
2019-05-21T10:46:28.250Z,18.68
2019-05-21T10:47:30.995Z,18.70
2019-05-21T10:48:33.089Z,19.07
2019-05-21T10:49:35.292Z,19.09
2019-05-21T10:50:37.660Z,18.56
2019-05-21T10:51:40.537Z,18.86
2019-05-21T10:52:44.909Z,19.13
2019-05-21T10:53:47.617Z,19.12
2019-05-21T10:54:50.484Z,19.41
2019-05-21T10:55:53.481Z,19.65
2019-05-21T10:56:56.249Z,19.81
2019-05-21T10:57:59.231Z,19.07
2019-05-21T10:59:03.521Z,19.22
2019-05-21T11:00:10.939Z,19.33
2019-05-21T11:01:15.896Z,19.23
2019-05-21T11:02:20.825Z,19.05
2019-05-21T11:03:26.749Z,19.13
2019-05-21T11:04:33.090Z,19.13
2019-05-21T11:05:37.625Z,19.30
2019-05-21T11:06:41.837Z,19.30
2019-05-21T11:07:44.297Z,19.32
2019-05-21T11:08:46.921Z,19.03
2019-05-21T11:09:48.656Z,19.24
2019-05-21T11:10:51.248Z,18.98
2019-05-21T11:11:55.368Z,18.87
2019-05-21T11:12:57.841Z,19.09
2019-05-21T11:14:00.442Z,18.99
2019-05-21T11:15:06.183Z,19.05
2019-05-21T11:16:09.355Z,19.34
2019-05-21T11:17:15.779Z,19.29
2019-05-21T11:18:17.948Z,19.53
2019-05-21T11:19:21.119Z,19.27
2019-05-21T11:20:23.583Z,19.18
2019-05-21T11:21:27.107Z,18.98
2019-05-21T11:22:31.938Z,18.86
2019-05-21T11:23:34.345Z,18.83
2019-05-21T11:24:37.542Z,18.56
2019-05-21T11:25:40.220Z,18.57
2019-05-21T11:26:42.548Z,18.67
2019-05-21T11:27:47.377Z,18.75
2019-05-21T11:28:51.223Z,18.61
2019-05-21T11:29:54.483Z,18.67
2019-05-21T11:30:57.059Z,18.74
2019-05-21T11:32:01.227Z,18.51
2019-05-21T11:33:03.934Z,18.93
2019-05-21T11:34:05.963Z,18.63
2019-05-21T11:35:09.645Z,18.51
2019-05-21T11:36:12.670Z,18.64
2019-05-21T11:37:15.231Z,18.64
2019-05-21T11:38:17.939Z,19.06
2019-05-21T11:39:21.926Z,18.74
2019-05-21T11:40:26.662Z,18.61
2019-05-21T11:41:30.372Z,18.59
2019-05-21T11:42:33.544Z,18.47
2019-05-21T11:43:35.940Z,18.26
2019-05-21T11:44:39.583Z,18.37
2019-05-21T11:45:42.390Z,18.58
2019-05-21T11:46:45.025Z,18.52
2019-05-21T11:47:47.813Z,18.39
2019-05-21T11:48:49.856Z,18.57
2019-05-21T11:49:52.633Z,18.48
2019-05-21T11:50:56.194Z,18.02
2019-05-21T11:51:59.289Z,18.02
2019-05-21T11:53:03.875Z,18.27
2019-05-21T11:54:08.312Z,18.26
2019-05-21T11:55:11.064Z,18.18
2019-05-21T11:56:14.027Z,17.95
2019-05-21T11:57:16.825Z,17.78
2019-05-21T11:58:19.505Z,17.84
2019-05-21T11:59:22.371Z,17.72
2019-05-21T12:00:26.818Z,17.78
2019-05-21T12:01:29.925Z,17.91
2019-05-21T12:02:32.110Z,17.84
2019-05-21T12:03:35.869Z,17.88
2019-05-21T12:04:39.897Z,17.84
2019-05-21T12:05:44.522Z,17.85
2019-05-21T12:06:46.876Z,17.82
2019-05-21T12:07:49.621Z,17.87
2019-05-21T12:08:57.179Z,17.95
2019-05-21T12:10:01.049Z,17.89
2019-05-21T12:11:03.955Z,18.00
2019-05-21T12:12:06.574Z,18.07
2019-05-21T12:13:09.545Z,18.32
2019-05-21T12:14:11.908Z,18.39
2019-05-21T12:15:15.089Z,18.49
2019-05-21T12:16:18.526Z,18.49
2019-05-21T12:17:20.960Z,18.48
2019-05-21T12:18:23.514Z,18.44
2019-05-21T12:19:25.176Z,18.59
2019-05-21T12:20:36.667Z,18.67
2019-05-21T12:21:32.851Z,18.70
2019-05-21T12:22:34.806Z,18.82
2019-05-21T12:23:37.246Z,18.73
2019-05-21T12:24:39.020Z,18.57
2019-05-21T12:25:41.509Z,18.54
2019-05-21T12:26:46.203Z,18.53
2019-05-21T12:27:49.761Z,18.52
2019-05-21T12:28:52.922Z,18.77
2019-05-21T12:29:57.218Z,18.75
2019-05-21T12:30:59.838Z,18.65
2019-05-21T12:32:02.728Z,18.43
2019-05-21T12:33:06.594Z,18.53
2019-05-21T12:34:11.082Z,18.60
2019-05-21T12:35:16.046Z,18.56
2019-05-21T12:36:18.629Z,18.50
2019-05-21T12:37:20.454Z,18.42
2019-05-21T12:38:23.291Z,18.52
2019-05-21T12:39:25.464Z,18.73
2019-05-21T12:40:27.781Z,18.58
2019-05-21T12:41:30.221Z,18.27
2019-05-21T12:42:31.971Z,18.32
2019-05-21T12:43:34.651Z,18.51
2019-05-21T12:44:37.703Z,18.29
2019-05-21T12:45:40.328Z,18.22
2019-05-21T12:46:44.453Z,18.30
2019-05-21T12:47:50.750Z,18.44
2019-05-21T12:48:55.266Z,18.67
2019-05-21T12:50:00.299Z,18.85
2019-05-21T12:51:02.776Z,18.88
2019-05-21T12:52:05.319Z,18.51
2019-05-21T12:53:08.892Z,18.75
2019-05-21T12:54:11.459Z,18.18
2019-05-21T12:55:15.346Z,18.04
2019-05-21T12:56:19.272Z,18.04
2019-05-21T12:57:21.111Z,18.36
2019-05-21T12:58:23.054Z,18.30
2019-05-21T12:59:25.654Z,18.31
2019-05-21T13:00:32.892Z,18.09
2019-05-21T13:01:35.672Z,18.35
2019-05-21T13:02:38.178Z,18.29
2019-05-21T13:03:40.371Z,18.13
2019-05-21T13:04:42.535Z,18.40
2019-05-21T13:05:45.507Z,18.30
2019-05-21T13:06:47.821Z,18.40
2019-05-21T13:07:50.256Z,18.16
2019-05-21T13:08:52.920Z,18.09
2019-05-21T13:09:55.327Z,18.07
2019-05-21T13:10:57.867Z,17.94
2019-05-21T13:12:01.512Z,18.17
2019-05-21T13:13:04.266Z,17.85
2019-05-21T13:14:07.209Z,17.81
2019-05-21T13:15:12.593Z,17.61
2019-05-21T13:16:14.829Z,17.65
2019-05-21T13:17:19.868Z,17.71
2019-05-21T13:18:21.550Z,17.78
2019-05-21T13:19:24.178Z,17.60
2019-05-21T13:20:27.910Z,17.63
2019-05-21T13:21:30.329Z,17.51
2019-05-21T13:22:32.993Z,17.53
2019-05-21T13:23:37.209Z,17.69
2019-05-21T13:24:39.612Z,17.69
2019-05-21T13:25:42.319Z,17.84
2019-05-21T13:26:46.996Z,17.89
2019-05-21T13:27:50.368Z,17.81
2019-05-21T13:28:53.272Z,17.76
2019-05-21T13:29:56.326Z,17.58
2019-05-21T13:30:58.098Z,17.60
2019-05-21T13:32:00.457Z,17.65
2019-05-21T13:33:03.841Z,17.68
2019-05-21T13:34:06.060Z,17.83
2019-05-21T13:35:10.073Z,18.07
2019-05-21T13:36:13.244Z,17.83
2019-05-21T13:37:15.493Z,17.95
2019-05-21T13:38:18.189Z,17.96
2019-05-21T13:39:20.547Z,17.97
2019-05-21T13:40:23.388Z,17.78
2019-05-21T13:41:27.485Z,17.95
2019-05-21T13:42:30.226Z,17.89
2019-05-21T13:43:34.548Z,18.16
2019-05-21T13:44:37.492Z,18.41
2019-05-21T13:45:40.369Z,18.34